CFG3003 EDDL-EDDL
Flight info
| Callsign | CFG3003 |
|---|---|
| Flight time | 0h 42m |
| Altitude | 3500 |
| Route | BUFAH DCT IBIXI |
| Aircraft | A320/M-SDE3FGHIRWY/LB1 |
Departure
| Time | 2026-05-04 21:38 |
|---|---|
| Airport | Düsseldorf Airport (EDDL) |
Arrival
| Time | 2026-05-04 22:20 |
|---|---|
| Airport | Düsseldorf Airport (EDDL) |
| Time | Latitude | Longitude | Altitude | Speed | Heading |
|---|---|---|---|---|---|
| 2026-05-04 21:20 | 51.28493 | 6.77054 | 125 ft | 0 kts | 323° |
| 2026-05-04 21:28 | 51.28491 | 6.77056 | 103 ft | 3 kts | 323° |
| 2026-05-04 21:29 | 51.28469 | 6.77080 | 125 ft | 4 kts | 330° |
| 2026-05-04 21:29 | 51.28445 | 6.77097 | 124 ft | 4 kts | 350° |
| 2026-05-04 21:29 | 51.28422 | 6.77094 | 125 ft | 3 kts | 46° |
| 2026-05-04 21:29 | 51.28420 | 6.77090 | 125 ft | 0 kts | 53° |
| 2026-05-04 21:32 | 51.28439 | 6.77131 | 126 ft | 12 kts | 53° |
| 2026-05-04 21:32 | 51.28500 | 6.77257 | 126 ft | 17 kts | 52° |
| 2026-05-04 21:32 | 51.28572 | 6.77424 | 124 ft | 19 kts | 54° |
| 2026-05-04 21:33 | 51.28645 | 6.77579 | 125 ft | 16 kts | 52° |
| 2026-05-04 21:33 | 51.28669 | 6.77735 | 126 ft | 14 kts | 65° |
| 2026-05-04 21:33 | 51.28719 | 6.77850 | 127 ft | 11 kts | 40° |
| 2026-05-04 21:33 | 51.28780 | 6.77844 | 124 ft | 8 kts | 329° |
| 2026-05-04 21:34 | 51.28825 | 6.77790 | 127 ft | 10 kts | 322° |
| 2026-05-04 21:34 | 51.28890 | 6.77715 | 128 ft | 12 kts | 332° |
| 2026-05-04 21:34 | 51.28951 | 6.77746 | 131 ft | 9 kts | 46° |
| 2026-05-04 21:34 | 51.28991 | 6.77830 | 132 ft | 12 kts | 53° |
| 2026-05-04 21:35 | 51.29045 | 6.77940 | 134 ft | 11 kts | 53° |
| 2026-05-04 21:35 | 51.29090 | 6.78037 | 134 ft | 11 kts | 53° |
| 2026-05-04 21:35 | 51.29132 | 6.78124 | 134 ft | 9 kts | 52° |
| 2026-05-04 21:35 | 51.29172 | 6.78209 | 135 ft | 12 kts | 52° |
| 2026-05-04 21:36 | 51.29224 | 6.78229 | 134 ft | 13 kts | 334° |
| 2026-05-04 21:36 | 51.29293 | 6.78125 | 135 ft | 13 kts | 297° |
| 2026-05-04 21:36 | 51.29292 | 6.78000 | 135 ft | 11 kts | 250° |
| 2026-05-04 21:36 | 51.29275 | 6.77954 | 134 ft | 0 kts | 233° |
| 2026-05-04 21:37 | 51.29253 | 6.77909 | 134 ft | 19 kts | 232° |
| 2026-05-04 21:37 | 51.29016 | 6.77412 | 126 ft | 92 kts | 233° |
| 2026-05-04 21:37 | 51.28510 | 6.76354 | 124 ft | 146 kts | 232° |
| 2026-05-04 21:38 | 51.27827 | 6.74979 | 491 ft | 160 kts | 231° |
| 2026-05-04 21:38 | 51.27159 | 6.73548 | 1160 ft | 160 kts | 232° |
| 2026-05-04 21:38 | 51.26502 | 6.72114 | 1766 ft | 160 kts | 232° |
| 2026-05-04 21:38 | 51.25812 | 6.70615 | 2157 ft | 178 kts | 232° |
| 2026-05-04 21:39 | 51.25033 | 6.68931 | 2446 ft | 200 kts | 232° |
| 2026-05-04 21:39 | 51.24163 | 6.67057 | 2782 ft | 221 kts | 232° |
| 2026-05-04 21:39 | 51.23177 | 6.65035 | 3186 ft | 242 kts | 224° |
| 2026-05-04 21:39 | 51.21682 | 6.63703 | 3781 ft | 255 kts | 192° |
| 2026-05-04 21:40 | 51.19900 | 6.63800 | 4583 ft | 263 kts | 169° |
| 2026-05-04 21:40 | 51.18078 | 6.64285 | 4916 ft | 266 kts | 173° |
| 2026-05-04 21:40 | 51.16248 | 6.64674 | 5007 ft | 265 kts | 165° |
| 2026-05-04 21:40 | 51.14632 | 6.66050 | 5033 ft | 266 kts | 138° |
| 2026-05-04 21:41 | 51.13621 | 6.68497 | 5032 ft | 269 kts | 109° |
| 2026-05-04 21:41 | 51.13457 | 6.71459 | 5034 ft | 273 kts | 81° |
| 2026-05-04 21:41 | 51.14147 | 6.74275 | 5037 ft | 276 kts | 61° |
| 2026-05-04 21:41 | 51.15145 | 6.76894 | 5036 ft | 277 kts | 58° |
| 2026-05-04 21:42 | 51.16175 | 6.79478 | 5034 ft | 277 kts | 58° |
| 2026-05-04 21:42 | 51.17214 | 6.82066 | 5034 ft | 277 kts | 58° |
| 2026-05-04 21:42 | 51.18253 | 6.84651 | 5035 ft | 277 kts | 58° |
| 2026-05-04 21:42 | 51.19293 | 6.87240 | 5037 ft | 277 kts | 58° |
| 2026-05-04 21:43 | 51.20331 | 6.89826 | 5035 ft | 277 kts | 58° |
| 2026-05-04 21:43 | 51.21371 | 6.92417 | 5037 ft | 277 kts | 58° |
| 2026-05-04 21:43 | 51.22410 | 6.95003 | 5035 ft | 277 kts | 58° |
| 2026-05-04 21:43 | 51.23447 | 6.97589 | 5036 ft | 277 kts | 58° |
| 2026-05-04 21:44 | 51.24485 | 7.00176 | 5034 ft | 277 kts | 58° |
| 2026-05-04 21:44 | 51.25514 | 7.02745 | 5029 ft | 268 kts | 58° |
| 2026-05-04 21:44 | 51.26488 | 7.05168 | 5026 ft | 251 kts | 58° |
| 2026-05-04 21:44 | 51.27417 | 7.07476 | 4920 ft | 244 kts | 58° |
| 2026-05-04 21:45 | 51.28350 | 7.09730 | 4574 ft | 243 kts | 52° |
| 2026-05-04 21:45 | 51.29673 | 7.11344 | 4229 ft | 241 kts | 19° |
| 2026-05-04 21:45 | 51.31297 | 7.11580 | 4032 ft | 235 kts | 345° |
| 2026-05-04 21:45 | 51.32774 | 7.10516 | 4027 ft | 229 kts | 326° |
| 2026-05-04 21:46 | 51.34074 | 7.09172 | 3916 ft | 217 kts | 324° |
| 2026-05-04 21:46 | 51.35300 | 7.07848 | 3617 ft | 216 kts | 323° |
| 2026-05-04 21:46 | 51.36541 | 7.06502 | 3315 ft | 215 kts | 323° |
| 2026-05-04 21:46 | 51.37770 | 7.05158 | 3072 ft | 212 kts | 323° |
| 2026-05-04 21:47 | 51.38806 | 7.03525 | 3024 ft | 209 kts | 298° |
| 2026-05-04 21:47 | 51.39270 | 7.01361 | 3030 ft | 206 kts | 273° |
| 2026-05-04 21:47 | 51.39124 | 6.99186 | 3023 ft | 191 kts | 248° |
| 2026-05-04 21:47 | 51.38485 | 6.97383 | 2999 ft | 185 kts | 231° |
| 2026-05-04 21:48 | 51.37711 | 6.95750 | 2831 ft | 183 kts | 232° |
| 2026-05-04 21:48 | 51.36945 | 6.94133 | 2611 ft | 182 kts | 232° |
| 2026-05-04 21:48 | 51.36181 | 6.92518 | 2376 ft | 182 kts | 231° |
| 2026-05-04 21:48 | 51.35415 | 6.90900 | 2131 ft | 182 kts | 231° |
| 2026-05-04 21:49 | 51.34611 | 6.89204 | 1883 ft | 197 kts | 232° |
| 2026-05-04 21:49 | 51.33818 | 6.87528 | 1611 ft | 179 kts | 231° |
| 2026-05-04 21:49 | 51.33108 | 6.86029 | 1397 ft | 159 kts | 231° |
| 2026-05-04 21:49 | 51.32467 | 6.84676 | 1179 ft | 148 kts | 230° |
| 2026-05-04 21:50 | 51.31858 | 6.83394 | 979 ft | 142 kts | 230° |
| 2026-05-04 21:50 | 51.31263 | 6.82141 | 791 ft | 140 kts | 230° |
| 2026-05-04 21:50 | 51.30676 | 6.80902 | 598 ft | 140 kts | 231° |
| 2026-05-04 21:50 | 51.30084 | 6.79670 | 416 ft | 139 kts | 231° |
| 2026-05-04 21:51 | 51.29500 | 6.78442 | 222 ft | 138 kts | 232° |
| 2026-05-04 21:51 | 51.28945 | 6.77276 | 126 ft | 118 kts | 233° |
| 2026-05-04 21:51 | 51.28475 | 6.76295 | 129 ft | 125 kts | 230° |
| 2026-05-04 21:51 | 51.27902 | 6.75066 | 635 ft | 139 kts | 232° |
| 2026-05-04 21:52 | 51.27372 | 6.73935 | 1375 ft | 125 kts | 230° |
| 2026-05-04 21:52 | 51.26772 | 6.72715 | 1458 ft | 151 kts | 230° |
| 2026-05-04 21:52 | 51.26087 | 6.71340 | 1741 ft | 170 kts | 231° |
| 2026-05-04 21:52 | 51.25320 | 6.69702 | 1958 ft | 196 kts | 233° |
| 2026-05-04 21:53 | 51.24467 | 6.67851 | 2309 ft | 217 kts | 230° |
| 2026-05-04 21:53 | 51.23209 | 6.66355 | 2669 ft | 240 kts | 199° |
| 2026-05-04 21:53 | 51.21507 | 6.66144 | 3317 ft | 255 kts | 168° |
| 2026-05-04 21:53 | 51.19905 | 6.67373 | 4150 ft | 262 kts | 140° |
| 2026-05-04 21:54 | 51.18809 | 6.69729 | 4798 ft | 271 kts | 114° |
| 2026-05-04 21:54 | 51.18273 | 6.72614 | 4982 ft | 272 kts | 104° |
| 2026-05-04 21:54 | 51.17872 | 6.75558 | 5032 ft | 272 kts | 103° |
| 2026-05-04 21:54 | 51.17486 | 6.78497 | 5035 ft | 272 kts | 103° |
| 2026-05-04 21:55 | 51.17159 | 6.81459 | 5029 ft | 272 kts | 93° |
| 2026-05-04 21:55 | 51.17522 | 6.84415 | 5036 ft | 275 kts | 65° |
| 2026-05-04 21:55 | 51.18461 | 6.87083 | 5035 ft | 277 kts | 59° |
| 2026-05-04 21:55 | 51.19482 | 6.89684 | 5036 ft | 277 kts | 58° |
| 2026-05-04 21:56 | 51.20510 | 6.92277 | 5034 ft | 276 kts | 58° |
| 2026-05-04 21:56 | 51.21540 | 6.94869 | 5035 ft | 277 kts | 58° |
| 2026-05-04 21:56 | 51.22569 | 6.97455 | 5035 ft | 276 kts | 58° |
| 2026-05-04 21:56 | 51.23601 | 7.00048 | 5034 ft | 277 kts | 58° |
| 2026-05-04 21:57 | 51.24633 | 7.02642 | 5034 ft | 277 kts | 58° |
| 2026-05-04 21:57 | 51.25651 | 7.05199 | 5034 ft | 277 kts | 58° |
| 2026-05-04 21:57 | 51.26677 | 7.07783 | 5029 ft | 271 kts | 58° |
| 2026-05-04 21:57 | 51.27651 | 7.10237 | 5027 ft | 253 kts | 58° |
| 2026-05-04 21:58 | 51.28575 | 7.12563 | 5031 ft | 246 kts | 58° |
| 2026-05-04 21:58 | 51.29491 | 7.14861 | 5031 ft | 245 kts | 57° |
| 2026-05-04 21:58 | 51.30656 | 7.16796 | 4848 ft | 243 kts | 30° |
| 2026-05-04 21:58 | 51.32249 | 7.17524 | 4508 ft | 240 kts | 357° |
| 2026-05-04 21:59 | 51.33824 | 7.16817 | 4148 ft | 236 kts | 325° |
| 2026-05-04 21:59 | 51.35151 | 7.15273 | 3782 ft | 237 kts | 322° |
| 2026-05-04 21:59 | 51.36496 | 7.13765 | 3488 ft | 235 kts | 323° |
| 2026-05-04 21:59 | 51.37841 | 7.12282 | 3171 ft | 234 kts | 323° |
| 2026-05-04 22:00 | 51.39175 | 7.10792 | 3021 ft | 233 kts | 320° |
| 2026-05-04 22:00 | 51.40150 | 7.08793 | 3029 ft | 229 kts | 288° |
| 2026-05-04 22:00 | 51.40482 | 7.06317 | 3033 ft | 228 kts | 275° |
| 2026-05-04 22:00 | 51.40613 | 7.03794 | 3033 ft | 227 kts | 265° |
| 2026-05-04 22:01 | 51.40256 | 7.01399 | 3026 ft | 214 kts | 243° |
| 2026-05-04 22:01 | 51.39475 | 6.99496 | 3045 ft | 195 kts | 231° |
| 2026-05-04 22:01 | 51.38679 | 6.97806 | 3034 ft | 188 kts | 232° |
| 2026-05-04 22:01 | 51.37903 | 6.96160 | 2873 ft | 184 kts | 232° |
| 2026-05-04 22:02 | 51.37135 | 6.94536 | 2661 ft | 182 kts | 232° |
| 2026-05-04 22:02 | 51.36372 | 6.92923 | 2426 ft | 182 kts | 232° |
| 2026-05-04 22:02 | 51.35610 | 6.91311 | 2176 ft | 180 kts | 231° |
| 2026-05-04 22:02 | 51.34864 | 6.89735 | 1942 ft | 176 kts | 232° |
| 2026-05-04 22:03 | 51.34148 | 6.88224 | 1706 ft | 165 kts | 232° |
| 2026-05-04 22:03 | 51.33493 | 6.86840 | 1503 ft | 149 kts | 231° |
| 2026-05-04 22:03 | 51.32883 | 6.85554 | 1300 ft | 142 kts | 231° |
| 2026-05-04 22:03 | 51.32292 | 6.84314 | 1084 ft | 140 kts | 230° |
| 2026-05-04 22:04 | 51.31715 | 6.83070 | 926 ft | 140 kts | 232° |
| 2026-05-04 22:04 | 51.31144 | 6.81830 | 748 ft | 138 kts | 230° |
| 2026-05-04 22:04 | 51.30541 | 6.80636 | 569 ft | 138 kts | 230° |
| 2026-05-04 22:04 | 51.29961 | 6.79413 | 381 ft | 138 kts | 233° |
| 2026-05-04 22:05 | 51.29382 | 6.78193 | 209 ft | 137 kts | 232° |
| 2026-05-04 22:05 | 51.28823 | 6.77026 | 127 ft | 120 kts | 232° |
| 2026-05-04 22:05 | 51.28303 | 6.75937 | 150 ft | 145 kts | 231° |
| 2026-05-04 22:05 | 51.27631 | 6.74544 | 628 ft | 169 kts | 231° |
| 2026-05-04 22:06 | 51.26880 | 6.72936 | 1113 ft | 192 kts | 232° |
| 2026-05-04 22:06 | 51.26048 | 6.71109 | 1629 ft | 213 kts | 233° |
| 2026-05-04 22:06 | 51.25058 | 6.69212 | 2137 ft | 228 kts | 218° |
| 2026-05-04 22:06 | 51.23572 | 6.68186 | 2521 ft | 246 kts | 186° |
| 2026-05-04 22:07 | 51.21863 | 6.68600 | 3288 ft | 256 kts | 156° |
| 2026-05-04 22:07 | 51.20457 | 6.70367 | 4173 ft | 264 kts | 128° |
| 2026-05-04 22:07 | 51.19674 | 6.73010 | 4794 ft | 272 kts | 107° |
| 2026-05-04 22:07 | 51.19218 | 6.75985 | 4980 ft | 272 kts | 104° |
| 2026-05-04 22:08 | 51.18876 | 6.78899 | 5024 ft | 259 kts | 93° |
| 2026-05-04 22:08 | 51.19191 | 6.81581 | 5028 ft | 246 kts | 68° |
| 2026-05-04 22:08 | 51.19924 | 6.84074 | 5030 ft | 245 kts | 64° |
| 2026-05-04 22:08 | 51.20688 | 6.86454 | 5032 ft | 244 kts | 63° |
| 2026-05-04 22:09 | 51.21479 | 6.88895 | 5030 ft | 244 kts | 63° |
| 2026-05-04 22:09 | 51.22258 | 6.91299 | 5032 ft | 244 kts | 63° |
| 2026-05-04 22:09 | 51.23030 | 6.93674 | 5028 ft | 244 kts | 63° |
| 2026-05-04 22:09 | 51.23812 | 6.96078 | 5029 ft | 244 kts | 63° |
| 2026-05-04 22:10 | 51.24593 | 6.98479 | 5030 ft | 244 kts | 63° |
| 2026-05-04 22:10 | 51.25376 | 7.00885 | 5030 ft | 244 kts | 63° |
| 2026-05-04 22:10 | 51.26159 | 7.03287 | 5034 ft | 244 kts | 63° |
| 2026-05-04 22:10 | 51.26939 | 7.05693 | 5034 ft | 244 kts | 63° |
| 2026-05-04 22:11 | 51.27720 | 7.08104 | 5033 ft | 244 kts | 63° |
| 2026-05-04 22:11 | 51.28500 | 7.10515 | 5033 ft | 244 kts | 63° |
| 2026-05-04 22:11 | 51.29280 | 7.12925 | 5031 ft | 244 kts | 64° |
| 2026-05-04 22:11 | 51.30058 | 7.15328 | 5032 ft | 244 kts | 64° |
| 2026-05-04 22:12 | 51.30845 | 7.17724 | 5013 ft | 243 kts | 60° |
| 2026-05-04 22:12 | 51.32021 | 7.19640 | 4976 ft | 242 kts | 29° |
| 2026-05-04 22:12 | 51.33587 | 7.20292 | 4851 ft | 229 kts | 354° |
| 2026-05-04 22:12 | 51.35054 | 7.19572 | 4687 ft | 219 kts | 329° |
| 2026-05-04 22:13 | 51.36345 | 7.18300 | 4400 ft | 217 kts | 324° |
| 2026-05-04 22:13 | 51.37594 | 7.16957 | 4118 ft | 216 kts | 323° |
| 2026-05-04 22:13 | 51.38837 | 7.15615 | 3861 ft | 215 kts | 323° |
| 2026-05-04 22:13 | 51.40073 | 7.14278 | 3594 ft | 214 kts | 323° |
| 2026-05-04 22:14 | 51.41310 | 7.12956 | 3336 ft | 214 kts | 323° |
| 2026-05-04 22:14 | 51.42354 | 7.11324 | 3090 ft | 208 kts | 298° |
| 2026-05-04 22:14 | 51.42829 | 7.09181 | 3014 ft | 204 kts | 274° |
| 2026-05-04 22:14 | 51.42721 | 7.06948 | 3024 ft | 196 kts | 250° |
| 2026-05-04 22:15 | 51.42117 | 7.05085 | 3022 ft | 185 kts | 231° |
| 2026-05-04 22:15 | 51.41345 | 7.03456 | 3025 ft | 182 kts | 231° |
| 2026-05-04 22:15 | 51.40578 | 7.01830 | 3029 ft | 184 kts | 231° |
| 2026-05-04 22:15 | 51.39812 | 7.00204 | 3033 ft | 182 kts | 231° |
| 2026-05-04 22:16 | 51.39305 | 6.99129 | 3034 ft | 183 kts | 231° |
| 2026-05-04 22:16 | 51.38534 | 6.97496 | 3004 ft | 185 kts | 232° |
| 2026-05-04 22:16 | 51.37759 | 6.95856 | 2823 ft | 184 kts | 232° |
| 2026-05-04 22:16 | 51.36990 | 6.94228 | 2607 ft | 183 kts | 232° |
| 2026-05-04 22:17 | 51.36222 | 6.92604 | 2365 ft | 183 kts | 231° |
| 2026-05-04 22:17 | 51.35464 | 6.91003 | 2161 ft | 177 kts | 232° |
| 2026-05-04 22:17 | 51.34740 | 6.89473 | 1884 ft | 167 kts | 231° |
| 2026-05-04 22:17 | 51.34064 | 6.88047 | 1679 ft | 154 kts | 232° |
| 2026-05-04 22:18 | 51.33447 | 6.86739 | 1466 ft | 143 kts | 232° |
| 2026-05-04 22:18 | 51.32860 | 6.85484 | 1282 ft | 139 kts | 232° |
| 2026-05-04 22:18 | 51.32291 | 6.84258 | 1078 ft | 137 kts | 231° |
| 2026-05-04 22:18 | 51.31711 | 6.83042 | 895 ft | 138 kts | 230° |
| 2026-05-04 22:19 | 51.31113 | 6.81837 | 720 ft | 138 kts | 230° |
| 2026-05-04 22:19 | 51.30524 | 6.80622 | 551 ft | 138 kts | 231° |
| 2026-05-04 22:19 | 51.29945 | 6.79377 | 352 ft | 139 kts | 231° |
| 2026-05-04 22:19 | 51.29366 | 6.78159 | 197 ft | 137 kts | 230° |
| 2026-05-04 22:20 | 51.28833 | 6.77048 | 128 ft | 108 kts | 233° |
| 2026-05-04 22:20 | 51.28484 | 6.76310 | 123 ft | 59 kts | 232° |
| 2026-05-04 22:20 | 51.28307 | 6.76047 | 125 ft | 26 kts | 191° |
| 2026-05-04 22:20 | 51.28220 | 6.76063 | 124 ft | 0 kts | 157° |
| 2026-05-04 22:21 | 51.28220 | 6.76064 | 126 ft | 1 kts | 157° |
| 2026-05-04 22:21 | 51.28176 | 6.76087 | 126 ft | 11 kts | 184° |
| 2026-05-04 22:22 | 51.28112 | 6.76034 | 128 ft | 11 kts | 183° |
| 2026-05-04 22:22 | 51.28036 | 6.76047 | 129 ft | 11 kts | 179° |
| 2026-05-04 22:22 | 51.27963 | 6.76034 | 125 ft | 10 kts | 223° |
| 2026-05-04 22:22 | 51.27955 | 6.75923 | 127 ft | 9 kts | 271° |
| 2026-05-04 22:23 | 51.27955 | 6.75913 | 127 ft | 0 kts | 271° |